Zim Luanda — 9HA2029 — position and weather

sailwx.info

Track history (hours):
 
Tides and Currents Weather Stations Pressure Air Temp Water Temp Dewpoint Dewpoint Depression Visibility Wind Speed Wind Dir Waves Ship Positions

Zim Luanda

Last reported at 2016-Jul-28 05:33 UTC. Time now 2016-Jul-28 06:45 UTC.
Position N 31°58' W 080°42'.

Length 260 m; draft 10.3 m.

Type: Ship (hazmat cat A). MMSI: 249830000.

Date/timePositionNaut miles runAvg speedWind from/ knotsBaromVisibWave heightAir tempDewpointWater temp
2016-Jul-28 05:33N 31°58' W 080°42'1211.9
2016-Jul-28 04:33N 31°56' W 080°28'1815.2
2016-Jul-28 03:24N 31°58' W 080°08'1517.3
2016-Jul-28 02:33N 32°03' W 079°52'2017.0
2016-Jul-28 01:21N 32°13' W 079°30'24416.5
2016-Jul-27 10:33N 34°41' W 075°39'2115.8
2016-Jul-27 09:13N 34°56' W 075°20'1215.5
2016-Jul-27 08:28N 35°04' W 075°11'11413.9
2016-Jul-27 00:15N 36°53' W 075°54'1014.6
2016-Jul-26 23:33N 36°58' W 076°05'1312.6
2016-Jul-26 22:33N 36°56' W 076°20'3 3.1
2016-Jul-26 21:31N 36°52' W 076°21'0 0.0
2016-Jul-26 20:31N 36°52' W 076°21'0 0.0
2016-Jul-26 19:31N 36°52' W 076°21'0 0.0
2016-Jul-26 18:31N 36°52' W 076°21'0 0.0
2016-Jul-26 17:31N 36°52' W 076°21'0 0.0
2016-Jul-26 16:31N 36°52' W 076°21'0 0.0
2016-Jul-26 15:31N 36°52' W 076°21'0 0.0
2016-Jul-26 14:31N 36°52' W 076°21'0 0.0
2016-Jul-26 13:31N 36°52' W 076°21'0 0.0
2016-Jul-26 12:31N 36°52' W 076°21'0 0.0
2016-Jul-26 11:31N 36°52' W 076°21'0 0.0
2016-Jul-26 10:31N 36°52' W 076°21'0 0.0
2016-Jul-26 09:31N 36°52' W 076°21'3 2.9
2016-Jul-26 08:31N 36°55' W 076°20'1111.0
2016-Jul-26 07:32N 36°59' W 076°08'14610.9
2016-Jul-25 18:05N 38°55' W 074°15'3212.7
2016-Jul-25 15:33N 39°25' W 074°00'1211.7
2016-Jul-25 14:33N 39°36' W 073°55'1111.3
2016-Jul-25 13:33N 39°47' W 073°52'1313.1
2016-Jul-25 12:33N 40°00' W 073°51'2612.5
2016-Jul-25 10:26N 40°27' W 073°49'1415.6
2016-Jul-25 09:34N 40°35' W 074°02'6 6.4
2016-Jul-25 08:33N 40°40' W 074°08'0 0.1
2016-Jul-25 07:33N 40°40' W 074°08'0 0.0
2016-Jul-25 06:33N 40°40' W 074°08'0 0.0
2016-Jul-25 05:33N 40°40' W 074°08'0 0.0
2016-Jul-25 04:33N 40°40' W 074°08'0 0.0
2016-Jul-25 03:33N 40°40' W 074°08'0 0.0
2016-Jul-25 02:33N 40°40' W 074°09'0 0.0
2016-Jul-25 01:33N 40°40' W 074°08'0 0.0
2016-Jul-25 00:33N 40°40' W 074°08'0 0.0
2016-Jul-24 23:33N 40°40' W 074°08'0 0.0
2016-Jul-24 22:33N 40°40' W 074°08'0 0.0
2016-Jul-24 21:33N 40°40' W 074°08'0 0.0
2016-Jul-24 20:30N 40°40' W 074°08'0 0.0
2016-Jul-24 19:12N 40°40' W 074°08'0 0.0
2016-Jul-24 18:30N 40°40' W 074°08'0 0.0
2016-Jul-24 17:30N 40°40' W 074°08'0 0.0
2016-Jul-24 16:27N 40°40' W 074°08'0 0.0
2016-Jul-24 15:30N 40°40' W 074°08'0 0.0
2016-Jul-24 14:33N 40°40' W 074°08'0 0.0
2016-Jul-24 13:33N 40°40' W 074°08'0 0.0
2016-Jul-24 12:21N 40°40' W 074°08'0 0.0
2016-Jul-24 11:33N 40°40' W 074°08'0 0.0
2016-Jul-24 10:33N 40°40' W 074°08'2 1.6
2016-Jul-24 09:33N 40°39' W 074°09'6 6.1
2016-Jul-24 08:33N 40°35' W 074°02'10 9.6
2016-Jul-24 07:33N 40°29' W 073°53'1010.4
2016-Jul-24 06:33N 40°28' W 073°40'8416.4
2016-Jul-24 01:25N 40°31' W 071°49'44015.2
2016-Jul-22 20:29N 44°35' W 063°32'3 2.9
2016-Jul-22 19:31N 44°38' W 063°34'0 0.0
2016-Jul-22 18:33N 44°38' W 063°34'0 0.0
2016-Jul-22 17:34N 44°38' W 063°34'0 0.0
2016-Jul-22 16:31N 44°38' W 063°34'0 0.0
2016-Jul-22 15:33N 44°38' W 063°34'0 0.0
2016-Jul-22 14:33N 44°38' W 063°34'0 0.0
2016-Jul-22 13:33N 44°38' W 063°34'0 0.0
2016-Jul-22 12:33N 44°38' W 063°34'0 0.0
2016-Jul-22 11:33N 44°38' W 063°34'0 0.0
2016-Jul-22 10:33N 44°38' W 063°34'2 1.5
2016-Jul-22 09:33N 44°36' W 063°33'  
2016-Jul-19 08:32N 42°04' W 032°59'4319.1
2016-Jul-19 06:18N 41°56' W 032°02'3519.1
2016-Jul-19 04:27N 41°50' W 031°16'8219.1
2016-Jul-19 00:09N 41°34' W 029°28'1219.0
2016-Jul-18 23:30N 41°31' W 029°12'  
Track history (hours):
 
Tides and Currents Weather Stations Pressure Air Temp Water Temp Dewpoint Dewpoint Depression Visibility Wind Speed Wind Dir Waves Ship Positions

Zim Luanda

Last reported at 2016-Jul-28 05:33 UTC. Time now 2016-Jul-28 06:45 UTC.
Position N 31°58' W 080°42'.

Length 260 m; draft 10.3 m.

Type: Ship (hazmat cat A). MMSI: 249830000.

Date/timePositionNaut miles runAvg speedWind from/ knotsBaromVisibWave heightAir tempDewpointWater temp
2016-Jul-28 05:33N 31°58' W 080°42'1211.9
2016-Jul-28 04:33N 31°56' W 080°28'1815.2
2016-Jul-28 03:24N 31°58' W 080°08'1517.3
2016-Jul-28 02:33N 32°03' W 079°52'2017.0
2016-Jul-28 01:21N 32°13' W 079°30'24416.5
2016-Jul-27 10:33N 34°41' W 075°39'2115.8
2016-Jul-27 09:13N 34°56' W 075°20'1215.5
2016-Jul-27 08:28N 35°04' W 075°11'11413.9
2016-Jul-27 00:15N 36°53' W 075°54'1014.6
2016-Jul-26 23:33N 36°58' W 076°05'1312.6
2016-Jul-26 22:33N 36°56' W 076°20'3 3.1
2016-Jul-26 21:31N 36°52' W 076°21'0 0.0
2016-Jul-26 20:31N 36°52' W 076°21'0 0.0
2016-Jul-26 19:31N 36°52' W 076°21'0 0.0
2016-Jul-26 18:31N 36°52' W 076°21'0 0.0
2016-Jul-26 17:31N 36°52' W 076°21'0 0.0
2016-Jul-26 16:31N 36°52' W 076°21'0 0.0
2016-Jul-26 15:31N 36°52' W 076°21'0 0.0
2016-Jul-26 14:31N 36°52' W 076°21'0 0.0
2016-Jul-26 13:31N 36°52' W 076°21'0 0.0
2016-Jul-26 12:31N 36°52' W 076°21'0 0.0
2016-Jul-26 11:31N 36°52' W 076°21'0 0.0
2016-Jul-26 10:31N 36°52' W 076°21'0 0.0
2016-Jul-26 09:31N 36°52' W 076°21'3 2.9
2016-Jul-26 08:31N 36°55' W 076°20'1111.0
2016-Jul-26 07:32N 36°59' W 076°08'14610.9
2016-Jul-25 18:05N 38°55' W 074°15'3212.7
2016-Jul-25 15:33N 39°25' W 074°00'1211.7
2016-Jul-25 14:33N 39°36' W 073°55'1111.3
2016-Jul-25 13:33N 39°47' W 073°52'1313.1
2016-Jul-25 12:33N 40°00' W 073°51'2612.5
2016-Jul-25 10:26N 40°27' W 073°49'1415.6
2016-Jul-25 09:34N 40°35' W 074°02'6 6.4
2016-Jul-25 08:33N 40°40' W 074°08'0 0.1
2016-Jul-25 07:33N 40°40' W 074°08'0 0.0
2016-Jul-25 06:33N 40°40' W 074°08'0 0.0
2016-Jul-25 05:33N 40°40' W 074°08'0 0.0
2016-Jul-25 04:33N 40°40' W 074°08'0 0.0
2016-Jul-25 03:33N 40°40' W 074°08'0 0.0
2016-Jul-25 02:33N 40°40' W 074°09'0 0.0
2016-Jul-25 01:33N 40°40' W 074°08'0 0.0
2016-Jul-25 00:33N 40°40' W 074°08'0 0.0
2016-Jul-24 23:33N 40°40' W 074°08'0 0.0
2016-Jul-24 22:33N 40°40' W 074°08'0 0.0
2016-Jul-24 21:33N 40°40' W 074°08'0 0.0
2016-Jul-24 20:30N 40°40' W 074°08'0 0.0
2016-Jul-24 19:12N 40°40' W 074°08'0 0.0
2016-Jul-24 18:30N 40°40' W 074°08'0 0.0
2016-Jul-24 17:30N 40°40' W 074°08'0 0.0
2016-Jul-24 16:27N 40°40' W 074°08'0 0.0
2016-Jul-24 15:30N 40°40' W 074°08'0 0.0
2016-Jul-24 14:33N 40°40' W 074°08'0 0.0
2016-Jul-24 13:33N 40°40' W 074°08'0 0.0
2016-Jul-24 12:21N 40°40' W 074°08'0 0.0
2016-Jul-24 11:33N 40°40' W 074°08'0 0.0
2016-Jul-24 10:33N 40°40' W 074°08'2 1.6
2016-Jul-24 09:33N 40°39' W 074°09'6 6.1
2016-Jul-24 08:33N 40°35' W 074°02'10 9.6
2016-Jul-24 07:33N 40°29' W 073°53'1010.4
2016-Jul-24 06:33N 40°28' W 073°40'8416.4
2016-Jul-24 01:25N 40°31' W 071°49'44015.2
2016-Jul-22 20:29N 44°35' W 063°32'3 2.9
2016-Jul-22 19:31N 44°38' W 063°34'0 0.0
2016-Jul-22 18:33N 44°38' W 063°34'0 0.0
2016-Jul-22 17:34N 44°38' W 063°34'0 0.0
2016-Jul-22 16:31N 44°38' W 063°34'0 0.0
2016-Jul-22 15:33N 44°38' W 063°34'0 0.0
2016-Jul-22 14:33N 44°38' W 063°34'0 0.0
2016-Jul-22 13:33N 44°38' W 063°34'0 0.0
2016-Jul-22 12:33N 44°38' W 063°34'0 0.0
2016-Jul-22 11:33N 44°38' W 063°34'0 0.0
2016-Jul-22 10:33N 44°38' W 063°34'2 1.5
2016-Jul-22 09:33N 44°36' W 063°33'  
2016-Jul-19 08:32N 42°04' W 032°59'4319.1
2016-Jul-19 06:18N 41°56' W 032°02'3519.1
2016-Jul-19 04:27N 41°50' W 031°16'8219.1
2016-Jul-19 00:09N 41°34' W 029°28'1219.0
2016-Jul-18 23:30N 41°31' W 029°12'  

Dump ship's entire track history